Aeroporto :
LOGIN :

Iscrizione | Disclaimer

   EN    FR    IT 

 










Sommario :    VFR   VFR Marginale   IFR   IFR Intensivo   IFR Molto Intensivo
Visibilità : 
Base nubi : 
>= 8 km
>= 3000ft
5 / 8 km
1000 / 3000 ft
1500m / 5 km
500 / 1000 ft
800 / 1500m
200 / 500 ft
< 800m
< 200 ft
Simboli :   Temporali  Nebbia  Neve Forte  Precipitazioni Forti  Vento > 20 kt
SIGMETs :   Varie  Temporali  Ghiacco  Turbolenza  Onda orograficha  Ceneri Vulcaniche






- Altitudine del aeroporto : 506 ft
- Codice IATA : GOT


ESGG - Landvetter

ULTIMO METAR :
  • 050250Z 12007KT 6000 OVC047 02/02 Q1000 R03/29//95

METARs OBSOLETI :
  • 050220Z 12009KT 5000 BR OVC047 02/02 Q1000 R03/29//95
  • 050150Z 11008KT 5000 BR OVC045 02/01 Q1000 R03/29//95
  • 050120Z 11007KT 5000 BR OVC044 02/02 Q1000 R03/29//95
  • 050050Z 12008KT 6000 BR FEW005 OVC041 02/02 Q1000 R03/29//95
  • 050020Z 12006KT 6000 BR FEW007 OVC040 02/02 Q1000 R03/29//95
  • 042350Z 11008KT 5000 BR OVC037 02/01 Q0999 R03/29//95

TAF TAF ESGG
Valido dal 05 a 00 ore il 06 a 00 ore UTC


042330Z 0500/0524 11005KT 5000 SCT012 BKN020
TEMPO 0500/0508 2000 BR BKN010
PROB40 0508/0518 BKN008
PROB40 0518/0524 4000 BR BKN010



MetMap, La meteo Aeronautica in un colpo d'occhio ! - Copyright ORBIFLY Dicembre 2007 - Disclaimer

ORBIFLY MET'MAP TEAM :

Programmazione e sviluppo : Alexandra Zaïnal
Concezione : Baudouin d'Aumeries
Aiuto per la programmazione : Marc-Olivier Méhu
Supporto tecnico e logistico : Manuel Goepfert
Aiuto per la traduzione : Arnaldo La Scala

Contatto : metmap@orbifly.com




FONTI E CREDITI :

   NOAA